createdAt,value
2024-04-25T00:00:14.243Z,2.77
2024-04-25T00:00:37.853Z,2.77
2024-04-25T00:01:12.387Z,2.88
2024-04-25T00:01:35.162Z,3.00
2024-04-25T00:02:30.708Z,3.00
2024-04-25T00:03:04.431Z,2.77
2024-04-25T00:03:34.128Z,3.00
2024-04-25T00:04:14.313Z,3.00
2024-04-25T00:04:39.584Z,3.00
2024-04-25T00:05:09.963Z,4.22
2024-04-25T00:05:33.131Z,2.88
2024-04-25T00:06:00.124Z,2.38
2024-04-25T00:06:30.025Z,2.50
2024-04-25T00:07:06.392Z,2.22
2024-04-25T00:07:38.218Z,3.22
2024-04-25T00:08:09.779Z,2.72
2024-04-25T00:08:32.019Z,2.38
2024-04-25T00:09:11.010Z,2.38
2024-04-25T00:09:39.276Z,1.88
2024-04-25T00:09:57.839Z,2.27
2024-04-25T00:10:29.704Z,3.11
2024-04-25T00:11:06.199Z,2.11
2024-04-25T00:11:30.612Z,2.11
2024-04-25T00:12:06.672Z,2.22
2024-04-25T00:12:37.996Z,2.11
2024-04-25T00:13:11.148Z,2.00
2024-04-25T00:13:33.746Z,2.27
2024-04-25T00:13:56.422Z,1.50
2024-04-25T00:14:30.551Z,4.11
2024-04-25T00:15:08.604Z,1.72
2024-04-25T00:15:33.731Z,2.27
2024-04-25T00:16:05.915Z,3.11
2024-04-25T00:16:38.436Z,2.38
2024-04-25T00:17:10.176Z,2.22
2024-04-25T00:17:40.146Z,2.50
2024-04-25T00:17:56.587Z,2.22
2024-04-25T00:18:30.228Z,2.77
2024-04-25T00:19:01.823Z,2.88
2024-04-25T00:19:39.578Z,2.50
2024-04-25T00:20:06.542Z,4.22
2024-04-25T00:20:42.301Z,2.50
2024-04-25T00:21:10.366Z,2.38
2024-04-25T00:21:34.269Z,2.88
2024-04-25T00:22:00.699Z,2.61
2024-04-25T00:22:30.173Z,2.77
2024-04-25T00:23:06.796Z,2.38
2024-04-25T00:23:34.248Z,2.27
2024-04-25T00:24:07.690Z,3.00
2024-04-25T00:24:38.128Z,2.61
2024-04-25T00:25:14.312Z,2.38
2024-04-25T00:25:39.169Z,3.00
2024-04-25T00:26:15.768Z,2.77
2024-04-25T00:26:36.759Z,2.88
2024-04-25T00:27:00.451Z,2.22
2024-04-25T00:27:38.167Z,2.27
2024-04-25T00:28:06.410Z,2.72
2024-04-25T00:28:38.129Z,2.50
2024-04-25T00:29:09.927Z,2.50
2024-04-25T00:29:32.834Z,2.72
2024-04-25T00:29:59.255Z,2.27
2024-04-25T00:30:30.451Z,2.50
2024-04-25T00:31:02.375Z,2.61
2024-04-25T00:31:40.711Z,3.11
2024-04-25T00:32:07.276Z,3.00
2024-04-25T00:32:38.323Z,2.11
2024-04-25T00:33:14.634Z,2.50
2024-04-25T00:33:37.371Z,2.72
2024-04-25T00:34:14.137Z,2.38
2024-04-25T00:34:38.472Z,2.11
2024-04-25T00:35:04.170Z,2.38
2024-04-25T00:35:33.768Z,2.27
2024-04-25T00:36:06.066Z,2.50
2024-04-25T00:36:39.193Z,1.88
2024-04-25T00:37:09.954Z,2.27
2024-04-25T00:37:37.219Z,2.11
2024-04-25T00:37:55.334Z,2.27
2024-04-25T00:38:29.951Z,2.27
2024-04-25T00:39:01.761Z,2.11
2024-04-25T00:39:34.004Z,3.11
2024-04-25T00:40:05.641Z,2.72
2024-04-25T00:40:37.879Z,3.00
2024-04-25T00:41:09.962Z,3.11
2024-04-25T00:41:38.171Z,4.27
2024-04-25T00:41:55.152Z,2.61
2024-04-25T00:42:29.846Z,2.38
2024-04-25T00:43:02.054Z,2.72
2024-04-25T00:44:07.092Z,2.38
2024-04-25T00:44:38.225Z,3.11
2024-04-25T00:45:10.678Z,3.11
2024-04-25T00:45:33.249Z,2.88
2024-04-25T00:45:55.872Z,2.61
2024-04-25T00:47:06.237Z,2.38
2024-04-25T00:47:34.353Z,4.27
2024-04-25T00:48:06.158Z,2.72
2024-04-25T00:48:37.811Z,2.11
2024-04-25T00:49:09.927Z,1.61
2024-04-25T00:49:32.652Z,2.38
2024-04-25T00:49:54.923Z,2.61
2024-04-25T00:50:29.843Z,3.00
2024-04-25T00:51:01.742Z,2.11
2024-04-25T00:51:35.311Z,2.11
2024-04-25T00:52:05.806Z,2.00
2024-04-25T00:52:37.747Z,1.61
2024-04-25T00:53:14.204Z,1.88
2024-04-25T00:53:33.585Z,1.88
2024-04-25T00:54:34.196Z,2.88
2024-04-25T00:55:02.004Z,2.50
2024-04-25T00:55:34.301Z,2.61
2024-04-25T00:56:09.129Z,2.50
2024-04-25T00:56:37.856Z,3.00
2024-04-25T00:58:15.950Z,2.77
2024-04-25T00:58:37.611Z,2.61
2024-04-25T00:58:59.481Z,2.38
2024-04-25T00:59:39.787Z,2.11
2024-04-25T01:00:08.187Z,2.38
2024-04-25T01:00:38.069Z,3.00
2024-04-25T01:01:11.367Z,2.61
2024-04-25T01:01:38.083Z,2.22
2024-04-25T01:01:57.528Z,2.38
2024-04-25T01:02:29.867Z,2.38
2024-04-25T01:03:02.230Z,2.00
2024-04-25T01:03:34.031Z,2.61
2024-04-25T01:04:10.717Z,2.61
2024-04-25T01:04:38.300Z,2.77
2024-04-25T01:05:11.208Z,1.77
2024-04-25T01:05:32.753Z,2.00
2024-04-25T01:05:55.240Z,2.77
2024-04-25T01:06:30.315Z,2.72
2024-04-25T01:07:06.341Z,2.61
2024-04-25T01:07:35.363Z,1.61
2024-04-25T01:08:08.098Z,2.72
2024-04-25T01:08:37.988Z,2.61
2024-04-25T01:09:10.321Z,2.61
2024-04-25T01:09:32.958Z,2.72
2024-04-25T01:09:55.703Z,2.27
2024-04-25T01:10:29.848Z,2.38
2024-04-25T01:11:02.257Z,4.38
2024-04-25T01:11:32.423Z,4.38
2024-04-25T01:12:06.171Z,2.38
2024-04-25T01:13:09.693Z,2.61
2024-04-25T01:13:41.219Z,2.61
2024-04-25T01:14:15.429Z,2.77
2024-04-25T01:14:36.983Z,3.38
2024-04-25T01:15:02.754Z,2.27
2024-04-25T01:15:34.652Z,2.27
2024-04-25T01:16:06.253Z,2.88
2024-04-25T01:16:38.290Z,2.11
2024-04-25T01:17:11.827Z,2.88
2024-04-25T01:17:37.609Z,2.88
2024-04-25T01:18:00.295Z,2.61
2024-04-25T01:18:29.845Z,4.38
2024-04-25T01:19:06.363Z,2.61
2024-04-25T01:19:38.576Z,3.38
2024-04-25T01:20:06.579Z,2.77
2024-04-25T01:20:37.840Z,3.00
2024-04-25T01:21:09.811Z,3.27
2024-04-25T01:21:32.725Z,3.27
2024-04-25T01:21:55.604Z,3.11
2024-04-25T01:22:29.643Z,3.38
2024-04-25T01:23:01.898Z,4.38
2024-04-25T01:23:34.859Z,3.00
2024-04-25T01:24:07.373Z,2.38
2024-04-25T01:24:38.049Z,2.27
2024-04-25T01:25:10.261Z,2.27
2024-04-25T01:25:33.014Z,2.27
2024-04-25T01:25:59.136Z,2.72
2024-04-25T01:26:30.871Z,2.88
2024-04-25T01:27:06.976Z,2.72
2024-04-25T01:27:28.840Z,3.00
2024-04-25T01:28:08.381Z,4.27
2024-04-25T01:28:39.112Z,3.11
2024-04-25T01:29:10.279Z,3.00
2024-04-25T01:29:39.289Z,4.27
2024-04-25T01:30:15.253Z,3.27
2024-04-25T01:30:36.926Z,3.11
2024-04-25T01:30:59.267Z,4.27
2024-04-25T01:31:37.998Z,2.72
2024-04-25T01:32:05.856Z,2.11
2024-04-25T01:33:09.940Z,2.88
2024-04-25T01:33:37.739Z,2.72
2024-04-25T01:34:14.689Z,3.11
2024-04-25T01:34:37.252Z,2.50
2024-04-25T01:35:01.551Z,3.00
2024-04-25T01:35:34.117Z,4.27
2024-04-25T01:36:05.844Z,3.00
2024-04-25T01:36:38.189Z,4.27
2024-04-25T01:37:11.898Z,2.38
2024-04-25T01:37:33.173Z,2.27
2024-04-25T01:38:00.344Z,4.27
2024-04-25T01:38:29.751Z,4.27
2024-04-25T01:39:06.670Z,3.11
2024-04-25T01:39:38.190Z,2.88
2024-04-25T01:40:06.036Z,2.50
2024-04-25T01:40:37.992Z,2.61
2024-04-25T01:41:13.702Z,1.77
2024-04-25T01:41:33.231Z,2.11
2024-04-25T01:42:06.780Z,2.38
2024-04-25T01:42:24.883Z,2.50
2024-04-25T01:43:02.045Z,2.27
2024-04-25T01:43:33.596Z,2.38
2024-04-25T01:44:39.035Z,2.11
2024-04-25T01:45:09.670Z,2.11
2024-04-25T01:45:33.128Z,2.50
2024-04-25T01:45:56.071Z,2.27
2024-04-25T01:46:29.831Z,2.61
2024-04-25T01:47:06.171Z,2.61
2024-04-25T01:48:05.953Z,2.22
2024-04-25T01:48:37.630Z,2.27
2024-04-25T01:49:10.009Z,2.77
2024-04-25T01:49:37.914Z,2.27
2024-04-25T01:49:56.296Z,2.50
2024-04-25T01:50:29.758Z,3.00
2024-04-25T01:50:55.651Z,2.61
2024-04-25T01:51:35.581Z,2.72
2024-04-25T01:52:05.929Z,3.38
2024-04-25T01:52:39.091Z,2.38
2024-04-25T01:53:13.640Z,2.61
2024-04-25T01:53:36.112Z,2.77
2024-04-25T01:54:15.326Z,3.27
2024-04-25T01:54:40.045Z,2.61
2024-04-25T01:55:23.609Z,2.77
2024-04-25T01:55:41.618Z,2.38
2024-04-25T01:56:04.440Z,3.27
2024-04-25T01:56:37.733Z,2.77
2024-04-25T01:57:10.960Z,2.77
2024-04-25T01:57:56.124Z,3.00
2024-04-25T01:58:30.617Z,2.72
2024-04-25T01:59:02.038Z,2.77
2024-04-25T01:59:39.200Z,4.38
2024-04-25T02:00:15.967Z,4.38
2024-04-25T02:00:49.947Z,2.00
2024-04-25T02:01:10.343Z,2.50
2024-04-25T02:01:44.209Z,2.11
2024-04-25T02:02:14.458Z,2.77
2024-04-25T02:02:36.720Z,2.61
2024-04-25T02:03:00.092Z,2.11
2024-04-25T02:03:38.187Z,3.27
2024-04-25T02:04:06.727Z,2.50
2024-04-25T02:05:32.862Z,2.22
2024-04-25T02:06:03.760Z,2.38
2024-04-25T02:06:24.788Z,2.38
2024-04-25T02:07:06.215Z,3.38
2024-04-25T02:07:38.109Z,2.11
2024-04-25T02:08:06.077Z,2.27
2024-04-25T02:08:32.612Z,2.61
2024-04-25T02:09:11.514Z,3.11
2024-04-25T02:09:40.084Z,3.00
2024-04-25T02:10:37.734Z,1.77
2024-04-25T02:11:02.272Z,2.11
2024-04-25T02:11:32.816Z,1.77
2024-04-25T02:12:08.443Z,2.38
2024-04-25T02:12:42.908Z,4.38
2024-04-25T02:13:09.850Z,2.38
2024-04-25T02:13:42.424Z,2.22
2024-04-25T02:14:15.354Z,2.50
2024-04-25T02:14:36.781Z,2.61
2024-04-25T02:15:00.175Z,4.38
2024-04-25T02:15:34.273Z,2.38
2024-04-25T02:16:07.589Z,2.50
2024-04-25T02:16:37.951Z,3.27
2024-04-25T02:17:12.786Z,2.50
2024-04-25T02:17:34.310Z,2.27
2024-04-25T02:18:01.160Z,2.27
2024-04-25T02:18:30.010Z,2.11
2024-04-25T02:19:02.642Z,2.27
2024-04-25T02:20:07.777Z,2.72
2024-04-25T02:20:38.181Z,2.11
2024-04-25T02:21:14.207Z,4.27
2024-04-25T02:21:33.047Z,2.11
2024-04-25T02:21:56.206Z,1.61
2024-04-25T02:22:29.936Z,1.50
2024-04-25T02:23:34.097Z,2.61
2024-04-25T02:24:06.232Z,2.38
2024-04-25T02:24:39.766Z,2.00
2024-04-25T02:25:10.233Z,2.22
2024-04-25T02:25:32.938Z,2.27
2024-04-25T02:25:57.661Z,4.38
2024-04-25T02:26:32.246Z,2.77
2024-04-25T02:27:06.672Z,2.77
2024-04-25T02:27:34.044Z,3.11
2024-04-25T02:28:06.380Z,3.00
2024-04-25T02:28:39.470Z,2.72
2024-04-25T02:29:10.246Z,2.27
2024-04-25T02:29:32.827Z,2.38
2024-04-25T02:29:56.607Z,3.00
2024-04-25T02:30:31.791Z,3.00
2024-04-25T02:31:02.847Z,3.27
2024-04-25T02:31:33.865Z,2.27
2024-04-25T02:32:12.718Z,2.27
2024-04-25T02:32:36.361Z,2.27
2024-04-25T02:33:09.938Z,1.88
2024-04-25T02:33:32.585Z,1.88
2024-04-25T02:33:59.388Z,4.27
2024-04-25T02:34:31.105Z,2.38
2024-04-25T02:35:01.732Z,2.38
2024-04-25T02:35:33.667Z,2.38
2024-04-25T02:36:07.158Z,3.11
2024-04-25T02:36:37.855Z,2.88
2024-04-25T02:37:09.897Z,2.00
2024-04-25T02:37:41.839Z,1.88
2024-04-25T02:38:18.120Z,1.72
2024-04-25T02:38:36.651Z,1.50
2024-04-25T02:38:58.948Z,2.11
2024-04-25T02:39:39.807Z,2.72
2024-04-25T02:40:07.164Z,2.88
2024-04-25T02:40:40.135Z,1.88
2024-04-25T02:41:11.108Z,1.88
2024-04-25T02:41:33.417Z,2.27
2024-04-25T02:41:55.349Z,2.11
2024-04-25T02:42:29.855Z,2.72
2024-04-25T02:43:06.087Z,1.77
2024-04-25T02:43:38.121Z,2.00
2024-04-25T02:44:07.123Z,4.22
2024-04-25T02:44:37.935Z,2.61
2024-04-25T02:45:09.850Z,3.00
2024-04-25T02:45:41.514Z,2.00
2024-04-25T02:46:13.846Z,2.27
2024-04-25T02:46:38.741Z,2.50
2024-04-25T02:47:05.427Z,2.00
2024-04-25T02:47:34.060Z,2.72
2024-04-25T02:48:06.027Z,3.11
2024-04-25T02:48:38.210Z,2.27
2024-04-25T02:49:32.985Z,2.72
2024-04-25T02:49:55.005Z,2.27
2024-04-25T02:50:33.123Z,4.27
2024-04-25T02:51:02.179Z,2.88
2024-04-25T02:51:33.832Z,2.72
2024-04-25T02:52:06.016Z,2.27
2024-04-25T02:52:37.741Z,2.50
2024-04-25T02:53:09.859Z,2.38
2024-04-25T02:53:34.466Z,2.50
2024-04-25T02:54:00.900Z,2.27
2024-04-25T02:54:31.015Z,2.27
2024-04-25T02:55:01.834Z,2.50
2024-04-25T02:55:33.782Z,2.61
2024-04-25T02:56:07.139Z,2.00
2024-04-25T02:56:39.172Z,4.22
2024-04-25T02:57:09.840Z,2.77
2024-04-25T02:57:33.953Z,2.50
2024-04-25T02:57:56.513Z,2.77
2024-04-25T02:58:30.199Z,3.00
2024-04-25T02:59:38.583Z,2.38
2024-04-25T03:00:06.540Z,2.38
2024-04-25T03:00:37.645Z,2.22
2024-04-25T03:01:09.965Z,2.77
2024-04-25T03:01:32.951Z,4.22
2024-04-25T03:01:55.087Z,4.22
2024-04-25T03:02:29.832Z,2.38
2024-04-25T03:03:01.804Z,2.88
2024-04-25T03:03:34.143Z,4.22
2024-04-25T03:04:10.328Z,3.22
2024-04-25T03:04:38.169Z,2.88
2024-04-25T03:05:09.596Z,2.88
2024-04-25T03:05:39.100Z,4.22
2024-04-25T03:06:37.104Z,2.61
2024-04-25T03:06:59.371Z,2.88
2024-04-25T03:07:37.991Z,2.22
2024-04-25T03:08:07.121Z,3.00
2024-04-25T03:08:37.868Z,3.00
2024-04-25T03:09:09.804Z,4.22
2024-04-25T03:09:39.149Z,4.22
2024-04-25T03:10:13.790Z,4.22
2024-04-25T03:10:40.888Z,2.61
2024-04-25T03:11:03.179Z,2.50
2024-04-25T03:11:32.671Z,3.22
2024-04-25T03:12:05.874Z,4.22
2024-04-25T03:12:38.064Z,4.22
2024-04-25T03:13:11.194Z,2.77
2024-04-25T03:13:39.914Z,4.22
2024-04-25T03:13:56.803Z,3.22
2024-04-25T03:15:03.696Z,4.22
2024-04-25T03:15:33.722Z,4.22
2024-04-25T03:16:05.993Z,4.22
2024-04-25T03:16:37.781Z,3.22
2024-04-25T03:17:09.933Z,2.77
2024-04-25T03:17:43.428Z,4.22
2024-04-25T03:18:13.934Z,4.22
2024-04-25T03:18:59.263Z,4.22
2024-04-25T03:19:41.184Z,4.22
2024-04-25T03:20:07.098Z,4.22
2024-04-25T03:20:38.021Z,4.22
2024-04-25T03:21:09.740Z,4.22
2024-04-25T03:21:34.458Z,4.22
2024-04-25T03:21:56.744Z,4.22
2024-04-25T03:22:30.093Z,3.00
2024-04-25T03:23:01.842Z,2.61
2024-04-25T03:23:33.741Z,4.22
2024-04-25T03:24:10.046Z,3.00
2024-04-25T03:24:40.973Z,4.22
2024-04-25T03:25:14.077Z,2.88
2024-04-25T03:25:47.209Z,3.00
2024-04-25T03:26:10.497Z,4.22
2024-04-25T03:26:37.181Z,4.22
2024-04-25T03:26:55.948Z,4.22
2024-04-25T03:27:35.519Z,4.22
2024-04-25T03:28:06.948Z,4.22
2024-04-25T03:28:39.374Z,4.22
2024-04-25T03:29:15.435Z,4.22
2024-04-25T03:29:37.188Z,4.22
2024-04-25T03:30:01.296Z,4.22
2024-04-25T03:30:30.177Z,4.22
2024-04-25T03:31:06.207Z,4.22
2024-04-25T03:31:33.517Z,4.22
2024-04-25T03:32:07.515Z,4.22
2024-04-25T03:33:10.165Z,4.22
2024-04-25T03:33:32.785Z,2.50
2024-04-25T03:33:55.448Z,2.77
2024-04-25T03:35:02.318Z,3.00
2024-04-25T03:35:35.719Z,3.00
2024-04-25T03:36:05.576Z,4.22
2024-04-25T03:36:38.721Z,2.88
2024-04-25T03:37:10.468Z,4.22
2024-04-25T03:37:36.215Z,4.22
2024-04-25T03:37:55.641Z,2.61
2024-04-25T03:38:29.929Z,2.11
2024-04-25T03:39:08.699Z,2.22
2024-04-25T03:39:32.451Z,3.00
2024-04-25T03:40:06.168Z,4.27
2024-04-25T03:40:37.835Z,4.27
2024-04-25T03:41:10.274Z,4.27
2024-04-25T03:41:34.550Z,4.27
2024-04-25T03:42:00.066Z,4.27
2024-04-25T03:42:32.244Z,4.27
2024-04-25T03:43:01.788Z,4.27
2024-04-25T03:43:34.249Z,4.27
2024-04-25T03:44:22.141Z,2.88
2024-04-25T03:44:44.466Z,3.11
2024-04-25T03:45:09.262Z,4.27
2024-04-25T03:45:40.678Z,4.27
2024-04-25T03:46:14.065Z,4.27
2024-04-25T03:46:41.835Z,4.27
2024-04-25T03:47:03.118Z,3.00
2024-04-25T03:47:35.256Z,2.88
2024-04-25T03:48:06.282Z,3.00
2024-04-25T03:48:37.954Z,4.38
2024-04-25T03:49:09.775Z,2.50
2024-04-25T03:49:37.025Z,2.22
2024-04-25T03:49:58.452Z,1.77
2024-04-25T03:50:31.052Z,2.72
2024-04-25T03:51:01.771Z,2.38
2024-04-25T03:51:35.103Z,2.11
2024-04-25T03:52:05.696Z,2.38
2024-04-25T03:52:39.109Z,2.11
2024-04-25T03:53:13.651Z,3.00
2024-04-25T03:53:39.036Z,2.77
2024-04-25T03:54:13.598Z,2.72
2024-04-25T03:54:38.001Z,2.38
2024-04-25T03:55:01.653Z,2.61
2024-04-25T03:55:39.511Z,2.38
2024-04-25T03:56:07.740Z,4.38
2024-04-25T03:57:15.439Z,2.22
2024-04-25T03:57:33.048Z,2.72
2024-04-25T03:57:56.819Z,1.77
2024-04-25T03:59:02.345Z,2.38
2024-04-25T03:59:33.724Z,2.38
2024-04-25T04:00:10.121Z,4.38
2024-04-25T04:00:38.249Z,4.38
2024-04-25T04:01:16.062Z,4.38
2024-04-25T04:01:39.822Z,4.38
2024-04-25T04:02:17.219Z,4.50
2024-04-25T04:02:36.682Z,3.38
2024-04-25T04:02:59.081Z,4.50
2024-04-25T04:03:38.059Z,3.38
2024-04-25T04:04:07.145Z,4.50
2024-04-25T04:04:42.763Z,4.50
2024-04-25T04:05:10.105Z,4.50
2024-04-25T04:05:35.981Z,2.61
2024-04-25T04:06:14.640Z,2.77
2024-04-25T04:06:36.663Z,2.88
2024-04-25T04:06:59.476Z,2.77
2024-04-25T04:07:33.763Z,3.11
2024-04-25T04:08:10.167Z,2.88
2024-04-25T04:08:38.272Z,3.11
2024-04-25T04:09:10.285Z,3.50
2024-04-25T04:09:32.590Z,3.22
2024-04-25T04:09:56.354Z,3.00
2024-04-25T04:10:30.300Z,4.50
2024-04-25T04:11:03.231Z,3.38
2024-04-25T04:11:33.421Z,4.50
2024-04-25T04:12:06.234Z,4.50
2024-04-25T04:12:38.857Z,4.50
2024-04-25T04:13:13.663Z,4.50
2024-04-25T04:13:36.382Z,4.50
2024-04-25T04:14:15.313Z,3.38
2024-04-25T04:14:41.717Z,2.11
2024-04-25T04:15:20.933Z,2.77
2024-04-25T04:15:44.227Z,3.00
2024-04-25T04:16:38.236Z,2.38
2024-04-25T04:17:09.924Z,4.38
2024-04-25T04:17:39.463Z,2.22
2024-04-25T04:18:14.347Z,4.38
2024-04-25T04:18:37.166Z,4.38
2024-04-25T04:18:59.966Z,3.38
2024-04-25T04:19:39.514Z,2.50
2024-04-25T04:20:05.980Z,1.77
2024-04-25T04:20:39.933Z,2.50
2024-04-25T04:21:14.117Z,2.38
2024-04-25T04:21:33.930Z,3.11
2024-04-25T04:21:57.152Z,2.50
2024-04-25T04:22:32.089Z,4.50
2024-04-25T04:23:01.752Z,4.50
2024-04-25T04:23:34.761Z,4.50
2024-04-25T04:24:06.201Z,2.77
2024-04-25T04:24:43.855Z,3.22
2024-04-25T04:25:10.166Z,4.50
2024-04-25T04:25:49.693Z,3.00
2024-04-25T04:26:08.004Z,2.27
2024-04-25T04:26:42.324Z,2.11
2024-04-25T04:27:02.167Z,2.77
2024-04-25T04:27:34.574Z,2.11
2024-04-25T04:28:07.247Z,4.50
2024-04-25T04:28:37.921Z,1.88
2024-04-25T04:29:10.032Z,1.77
2024-04-25T04:29:33.124Z,2.11
2024-04-25T04:29:55.761Z,2.27
2024-04-25T04:30:31.367Z,2.50
2024-04-25T04:31:02.236Z,2.50
2024-04-25T04:31:35.364Z,3.11
2024-04-25T04:32:06.010Z,3.22
2024-04-25T04:32:46.914Z,3.50
2024-04-25T04:33:08.895Z,3.50
2024-04-25T04:33:41.052Z,3.11
2024-04-25T04:34:18.384Z,2.88
2024-04-25T04:34:38.004Z,3.00
2024-04-25T04:35:00.559Z,4.50
2024-04-25T04:35:33.867Z,2.77
2024-04-25T04:36:06.211Z,2.77
2024-04-25T04:36:42.285Z,2.22
2024-04-25T04:37:14.792Z,1.61
2024-04-25T04:37:57.114Z,2.77
2024-04-25T04:39:03.735Z,2.38
2024-04-25T04:39:34.169Z,2.11
2024-04-25T04:40:10.254Z,2.00
2024-04-25T04:40:38.207Z,2.50
2024-04-25T04:41:09.936Z,2.61
2024-04-25T04:41:39.831Z,2.22
2024-04-25T04:42:15.358Z,1.50
2024-04-25T04:42:36.706Z,1.72
2024-04-25T04:43:04.372Z,4.38
2024-04-25T04:43:34.287Z,4.27
2024-04-25T04:44:06.547Z,2.38
2024-04-25T04:44:39.395Z,4.27
2024-04-25T04:45:13.338Z,3.11
2024-04-25T04:45:42.035Z,1.88
2024-04-25T04:46:14.484Z,1.38
2024-04-25T04:46:44.112Z,1.50
2024-04-25T04:47:03.907Z,1.88
2024-04-25T04:47:37.572Z,2.00
2024-04-25T04:48:13.067Z,2.61
2024-04-25T04:48:38.450Z,4.27
2024-04-25T04:49:10.577Z,2.11
2024-04-25T04:49:33.016Z,4.27
2024-04-25T04:50:00.412Z,4.27
2024-04-25T04:50:30.031Z,2.88
2024-04-25T04:51:02.193Z,4.27
2024-04-25T04:51:35.281Z,1.88
2024-04-25T04:52:07.254Z,2.00
2024-04-25T04:53:12.512Z,1.38
2024-04-25T04:53:35.080Z,1.88
2024-04-25T04:53:57.728Z,2.00
2024-04-25T04:54:34.458Z,1.72
2024-04-25T04:55:07.650Z,2.50
2024-04-25T04:55:28.209Z,2.11
2024-04-25T04:56:07.650Z,2.27
2024-04-25T04:56:37.865Z,2.88
2024-04-25T04:57:13.150Z,1.38
2024-04-25T04:58:14.311Z,2.11
2024-04-25T04:58:41.001Z,2.27
2024-04-25T04:58:59.326Z,2.72
2024-04-25T04:59:34.235Z,2.50
2024-04-25T05:00:11.258Z,3.00
2024-04-25T05:00:39.044Z,2.38
2024-04-25T05:01:10.190Z,3.11
2024-04-25T05:01:32.895Z,2.88
2024-04-25T05:01:55.248Z,4.27
2024-04-25T05:02:30.543Z,4.27
2024-04-25T05:03:02.468Z,4.27
2024-04-25T05:03:33.703Z,1.50
2024-04-25T05:04:07.108Z,2.11
2024-04-25T05:04:42.041Z,1.11
2024-04-25T05:05:11.481Z,1.77
2024-04-25T05:05:34.044Z,1.22
2024-04-25T05:05:56.638Z,1.72
2024-04-25T05:06:29.982Z,.72
2024-04-25T05:07:01.657Z,.72
2024-04-25T05:07:33.978Z,1.50
2024-04-25T05:08:07.122Z,2.22
2024-04-25T05:08:37.886Z,4.11
2024-04-25T05:09:12.981Z,2.11
2024-04-25T05:09:41.814Z,1.88
2024-04-25T05:10:13.736Z,1.72
2024-04-25T05:10:36.697Z,2.22
2024-04-25T05:10:59.601Z,2.50
2024-04-25T05:11:35.596Z,1.61
2024-04-25T05:12:05.763Z,1.72
2024-04-25T05:12:38.177Z,1.88
2024-04-25T05:13:09.728Z,2.11
2024-04-25T05:13:35.456Z,2.72
2024-04-25T05:14:04.290Z,2.22
2024-04-25T05:14:31.122Z,1.72
2024-04-25T05:15:07.999Z,1.72
2024-04-25T05:15:33.710Z,2.38
2024-04-25T05:16:07.177Z,1.72
2024-04-25T05:16:37.610Z,1.61
2024-04-25T05:17:14.606Z,1.88
2024-04-25T05:17:42.039Z,1.27
2024-04-25T05:18:13.831Z,1.27
2024-04-25T05:18:38.269Z,.72
2024-04-25T05:19:00.142Z,1.88
2024-04-25T05:19:42.054Z,2.27
2024-04-25T05:20:08.214Z,2.00
2024-04-25T05:20:37.600Z,2.72
2024-04-25T05:21:09.732Z,2.11
2024-04-25T05:21:34.167Z,2.72
2024-04-25T05:21:58.458Z,1.27
2024-04-25T05:22:29.633Z,1.50
2024-04-25T05:23:01.895Z,1.22
2024-04-25T05:23:33.743Z,1.72
2024-04-25T05:24:10.209Z,1.27
2024-04-25T05:24:37.874Z,.77
2024-04-25T05:25:09.919Z,1.00
2024-04-25T05:25:41.642Z,.72
2024-04-25T05:26:38.184Z,1.11
2024-04-25T05:26:59.213Z,1.11
2024-04-25T05:27:33.742Z,1.11
2024-04-25T05:28:38.207Z,1.61
2024-04-25T05:29:11.917Z,1.11
2024-04-25T05:29:41.396Z,1.11
2024-04-25T05:30:14.433Z,.77
2024-04-25T05:30:37.298Z,1.11
2024-04-25T05:31:03.511Z,1.50
2024-04-25T05:31:34.101Z,1.50
2024-04-25T05:32:06.059Z,1.72
2024-04-25T05:32:43.696Z,1.61
2024-04-25T05:33:10.350Z,1.00
2024-04-25T05:33:43.573Z,1.38
2024-04-25T05:34:22.494Z,1.11
2024-04-25T05:34:36.532Z,.72
2024-04-25T05:35:01.338Z,1.38
2024-04-25T05:35:34.935Z,1.11
2024-04-25T05:36:07.454Z,1.22
2024-04-25T05:36:37.855Z,1.50
2024-04-25T05:37:13.026Z,1.88
2024-04-25T05:37:35.394Z,1.22
2024-04-25T05:38:00.781Z,1.11
2024-04-25T05:38:31.568Z,1.11
2024-04-25T05:39:01.839Z,.77
2024-04-25T05:39:34.073Z,1.61
2024-04-25T05:40:06.014Z,0
2024-04-25T05:41:15.235Z,1.50
2024-04-25T05:41:41.923Z,.72
2024-04-25T05:42:14.537Z,.22
2024-04-25T05:42:37.348Z,.72
2024-04-25T05:43:00.052Z,.50
2024-04-25T05:43:35.299Z,.77
2024-04-25T05:44:06.762Z,1.11
2024-04-25T05:44:37.990Z,1.50
2024-04-25T05:45:10.292Z,.77
2024-04-25T05:45:34.289Z,1.61
2024-04-25T05:45:56.572Z,1.88
2024-04-25T05:46:30.468Z,1.27
2024-04-25T05:47:01.842Z,.77
2024-04-25T05:47:34.083Z,1.11
2024-04-25T05:48:06.145Z,.61
2024-04-25T05:48:37.997Z,1.50
2024-04-25T05:49:10.159Z,1.22
2024-04-25T05:49:42.625Z,1.38
2024-04-25T05:50:15.370Z,2.11
2024-04-25T05:50:38.237Z,1.72
2024-04-25T05:51:01.276Z,1.88
2024-04-25T05:51:33.922Z,2.22
2024-04-25T05:52:05.966Z,1.77
2024-04-25T05:52:42.327Z,1.61
2024-04-25T05:53:09.124Z,2.61
2024-04-25T05:53:42.331Z,1.88
2024-04-25T05:54:41.612Z,1.88
2024-04-25T05:55:18.919Z,1.22
2024-04-25T05:55:46.595Z,1.61
2024-04-25T05:56:38.234Z,1.22
2024-04-25T05:57:10.051Z,1.77
2024-04-25T05:57:44.166Z,1.77
2024-04-25T05:58:19.424Z,1.50
2024-04-25T05:58:38.881Z,.77
2024-04-25T05:59:01.273Z,4.00
2024-04-25T05:59:34.047Z,2.22
2024-04-25T06:00:09.209Z,2.61
2024-04-25T06:00:38.191Z,1.22
2024-04-25T06:01:10.016Z,1.50
2024-04-25T06:01:32.930Z,.77
2024-04-25T06:01:56.739Z,1.27
2024-04-25T06:02:30.669Z,1.50
2024-04-25T06:03:06.348Z,1.27
2024-04-25T06:03:41.314Z,1.11
2024-04-25T06:04:08.008Z,1.27
2024-04-25T06:04:44.671Z,2.11
2024-04-25T06:05:10.460Z,2.61
2024-04-25T06:05:39.517Z,2.22
2024-04-25T06:06:14.743Z,.61
2024-04-25T06:06:37.682Z,1.27
2024-04-25T06:07:00.892Z,.88
2024-04-25T06:07:38.323Z,1.11
2024-04-25T06:08:06.446Z,1.11
2024-04-25T06:08:43.053Z,1.88
2024-04-25T06:09:09.908Z,1.27
2024-04-25T06:09:51.194Z,2.22
2024-04-25T06:10:17.884Z,2.61
2024-04-25T06:10:36.521Z,1.50
2024-04-25T06:10:59.535Z,4.00
2024-04-25T06:11:33.740Z,1.50
2024-04-25T06:12:07.164Z,2.38
2024-04-25T06:12:38.175Z,2.50
2024-04-25T06:13:09.998Z,1.50
2024-04-25T06:13:42.081Z,1.50
2024-04-25T06:14:15.401Z,2.27
2024-04-25T06:14:33.736Z,4.11
2024-04-25T06:14:57.237Z,4.11
2024-04-25T06:15:34.101Z,.61
2024-04-25T06:16:10.189Z,1.27
2024-04-25T06:17:12.485Z,1.00
2024-04-25T06:17:42.773Z,1.72
2024-04-25T06:18:14.661Z,1.72
2024-04-25T06:19:01.384Z,1.38
2024-04-25T06:20:42.186Z,1.50
2024-04-25T06:21:09.767Z,.50
2024-04-25T06:21:45.045Z,.77
2024-04-25T06:22:13.894Z,.88
2024-04-25T06:22:36.833Z,.22
2024-04-25T06:23:00.450Z,.27
2024-04-25T06:23:33.624Z,1.11
2024-04-25T06:24:07.169Z,1.11
2024-04-25T06:24:44.467Z,.88
2024-04-25T06:25:09.853Z,.50
2024-04-25T06:25:42.670Z,.88
2024-04-25T06:26:39.430Z,.72
2024-04-25T06:26:59.390Z,.88
2024-04-25T06:27:33.727Z,1.61
2024-04-25T06:28:06.581Z,2.38
2024-04-25T06:28:37.663Z,1.50
2024-04-25T06:29:10.129Z,.88
2024-04-25T06:29:39.183Z,.61
2024-04-25T06:30:13.127Z,1.88
2024-04-25T06:30:39.228Z,2.50
2024-04-25T06:31:02.089Z,.61
2024-04-25T06:31:27.994Z,.77
2024-04-25T06:32:06.466Z,1.38
2024-04-25T06:32:39.769Z,1.11
2024-04-25T06:33:12.966Z,.77
2024-04-25T06:33:35.648Z,1.00
2024-04-25T06:34:31.023Z,1.00
2024-04-25T06:35:03.692Z,1.38
2024-04-25T06:35:36.032Z,1.61
2024-04-25T06:36:14.455Z,1.22
2024-04-25T06:36:43.254Z,1.61
2024-04-25T06:37:10.174Z,1.61
2024-04-25T06:37:39.162Z,1.61
2024-04-25T06:38:22.340Z,3.77
2024-04-25T06:38:48.867Z,2.00
2024-04-25T06:39:17.916Z,1.88
2024-04-25T06:39:41.689Z,2.27
2024-04-25T06:40:08.512Z,1.77
2024-04-25T06:40:44.608Z,1.72
2024-04-25T06:41:11.181Z,1.50
2024-04-25T06:41:50.955Z,1.61
2024-04-25T06:42:18.248Z,3.88
2024-04-25T06:42:36.607Z,3.88
2024-04-25T06:43:36.989Z,3.88
2024-04-25T06:44:14.826Z,4.00
2024-04-25T06:45:10.026Z,2.72
2024-04-25T06:45:41.872Z,2.27
2024-04-25T06:46:13.731Z,3.11
2024-04-25T06:46:39.124Z,4.11
2024-04-25T06:47:01.435Z,4.11
2024-04-25T06:47:33.997Z,4.11
2024-04-25T06:48:07.246Z,4.11
2024-04-25T06:48:37.849Z,4.22
2024-04-25T06:49:49.797Z,4.22
2024-04-25T06:50:12.741Z,4.22
2024-04-25T06:50:36.773Z,4.22
2024-04-25T06:50:59.713Z,4.22
2024-04-25T06:51:34.211Z,4.22
2024-04-25T06:52:06.039Z,4.22
2024-04-25T06:52:38.399Z,4.22
2024-04-25T06:53:14.379Z,4.22
2024-04-25T06:53:35.665Z,4.22
2024-04-25T06:54:14.085Z,4.22
2024-04-25T06:54:37.605Z,4.22
2024-04-25T06:55:00.310Z,4.27
2024-04-25T06:55:33.637Z,4.27
2024-04-25T06:56:05.730Z,2.72
2024-04-25T06:56:37.907Z,4.27
2024-04-25T06:57:06.519Z,4.38
2024-04-25T06:57:39.605Z,4.38
2024-04-25T06:58:20.201Z,4.38
2024-04-25T06:58:37.949Z,3.00
2024-04-25T06:59:34.326Z,2.72
2024-04-25T07:00:08.558Z,4.38
2024-04-25T07:00:37.980Z,4.38
2024-04-25T07:01:09.733Z,4.38
2024-04-25T07:01:40.398Z,4.38
2024-04-25T07:02:14.317Z,2.77